Terminal Aerodrome Forecast
Issued by NWS

Current Version | Previous Version | Graphics & Text | Print | Product List | Glossary On
Versions: 1 2 3 4 5 6 7 8 9 10 11 12 13 14 15 16 17 18
437
FTUS41 KILN 211600 AAA
TAFLCK
TAF AMD
KLCK 211617Z 2116/2212 36008KT P6SM OVC040
      TEMPO 2116/2118 BKN025
     FM220000 33010KT P6SM SCT040
     FM220600 25007KT P6SM FEW040=

USA.gov is the U.S. government's official web portal to all federal, state and local government web resources and services.